sensor_id;sensor_type;location;lat;lon;timestamp;pressure;altitude;pressure_sealevel;temperature;humidity
60487;BME280;46327;39.866;-0.072;2022-11-12T19:33:47;102488.97;;;21.28;56.11
60487;BME280;46327;39.866;-0.072;2022-11-12T19:36:17;102506.13;;;21.94;55.15
60487;BME280;46327;39.866;-0.072;2022-11-12T19:38:44;102571.13;;;22.29;54.59
60487;BME280;46327;39.866;-0.072;2022-11-12T19:41:13;102581.09;;;22.26;54.41
60487;BME280;46327;39.866;-0.072;2022-11-12T19:43:41;102582.72;;;22.66;54.33
60487;BME280;46327;39.866;-0.072;2022-11-12T19:46:09;102567.71;;;22.72;54.98
60487;BME280;46327;39.866;-0.072;2022-11-12T19:48:37;102569.58;;;22.89;54.69
60487;BME280;46327;39.866;-0.072;2022-11-12T19:51:06;102584.48;;;23.12;54.37
60487;BME280;46327;39.866;-0.072;2022-11-12T19:53:35;102591.86;;;23.15;54.38
60487;BME280;46327;39.866;-0.072;2022-11-12T19:56:04;102580.40;;;22.98;54.58
60487;BME280;46327;39.866;-0.072;2022-11-12T19:58:32;102577.07;;;22.98;54.91
60487;BME280;46327;39.866;-0.072;2022-11-12T20:01:02;102579.21;;;23.03;55.55
60487;BME280;46327;39.866;-0.072;2022-11-12T20:03:30;102579.19;;;23.19;55.76
60487;BME280;46327;39.866;-0.072;2022-11-12T20:06:00;102572.81;;;23.33;55.66
60487;BME280;46327;39.866;-0.072;2022-11-12T20:08:28;102574.55;;;23.26;55.13
60487;BME280;46327;39.866;-0.072;2022-11-12T20:10:55;102575.02;;;23.28;55.27
60487;BME280;46327;39.866;-0.072;2022-11-12T20:13:23;102584.38;;;23.28;55.10
60487;BME280;46327;39.866;-0.072;2022-11-12T20:15:50;102604.63;;;23.30;55.08
60487;BME280;46327;39.866;-0.072;2022-11-12T20:18:17;102609.68;;;23.57;55.08
60487;BME280;46327;39.866;-0.072;2022-11-12T20:20:46;102613.75;;;23.06;55.42
60487;BME280;46327;39.866;-0.072;2022-11-12T20:23:13;102608.98;;;23.31;55.26
60487;BME280;46327;39.866;-0.072;2022-11-12T20:25:41;102594.45;;;23.22;55.53
60487;BME280;46327;39.866;-0.072;2022-11-12T20:28:09;102582.97;;;23.05;55.49
60487;BME280;46327;39.866;-0.072;2022-11-12T20:30:37;102571.45;;;23.57;55.21
60487;BME280;46327;39.866;-0.072;2022-11-12T20:33:04;102566.46;;;23.40;55.00
60487;BME280;46327;39.866;-0.072;2022-11-12T20:35:33;102571.53;;;23.29;55.13
60487;BME280;46327;39.866;-0.072;2022-11-12T20:38:01;102570.58;;;22.99;55.19
60487;BME280;46327;39.866;-0.072;2022-11-12T20:40:29;102579.64;;;23.44;54.98
60487;BME280;46327;39.866;-0.072;2022-11-12T20:42:57;102578.17;;;23.03;55.45
60487;BME280;46327;39.866;-0.072;2022-11-12T20:45:24;102585.37;;;23.15;55.40
60487;BME280;46327;39.866;-0.072;2022-11-12T20:47:54;102589.34;;;23.43;54.78
60487;BME280;46327;39.866;-0.072;2022-11-12T20:50:21;102607.94;;;23.27;54.45
60487;BME280;46327;39.866;-0.072;2022-11-12T20:52:48;102596.80;;;22.70;55.24
60487;BME280;46327;39.866;-0.072;2022-11-12T20:55:16;102581.90;;;23.51;54.41
60487;BME280;46327;39.866;-0.072;2022-11-12T20:57:43;102587.05;;;23.46;54.60
60487;BME280;46327;39.866;-0.072;2022-11-12T21:00:12;102573.63;;;23.11;54.66
60487;BME280;46327;39.866;-0.072;2022-11-12T21:02:39;102558.45;;;23.24;54.45
60487;BME280;46327;39.866;-0.072;2022-11-12T21:05:07;102561.28;;;23.04;54.72
60487;BME280;46327;39.866;-0.072;2022-11-12T21:07:34;102565.76;;;23.22;54.62
60487;BME280;46327;39.866;-0.072;2022-11-12T21:10:02;102562.32;;;22.89;54.90
60487;BME280;46327;39.866;-0.072;2022-11-12T21:12:30;102553.71;;;23.12;54.72
60487;BME280;46327;39.866;-0.072;2022-11-12T21:14:57;102553.21;;;23.45;54.58
60487;BME280;46327;39.866;-0.072;2022-11-12T21:17:24;102559.14;;;23.16;54.69
60487;BME280;46327;39.866;-0.072;2022-11-12T21:19:51;102543.17;;;22.91;54.77
60487;BME280;46327;39.866;-0.072;2022-11-12T21:22:18;102527.43;;;23.29;54.86
60487;BME280;46327;39.866;-0.072;2022-11-12T21:24:46;102518.52;;;23.11;54.74
60487;BME280;46327;39.866;-0.072;2022-11-12T21:27:13;102514.44;;;22.92;54.27
60487;BME280;46327;39.866;-0.072;2022-11-12T21:29:41;102514.45;;;22.65;55.48
60487;BME280;46327;39.866;-0.072;2022-11-12T21:32:08;102520.56;;;23.37;55.09
60487;BME280;46327;39.866;-0.072;2022-11-12T21:34:36;102547.25;;;23.30;54.45
60487;BME280;46327;39.866;-0.072;2022-11-12T21:37:03;102575.81;;;23.14;54.04
60487;BME280;46327;39.866;-0.072;2022-11-12T21:39:31;102590.14;;;23.09;54.16
60487;BME280;46327;39.866;-0.072;2022-11-12T21:41:58;102582.75;;;23.04;54.15
60487;BME280;46327;39.866;-0.072;2022-11-12T21:44:25;102575.07;;;22.86;54.19
60487;BME280;46327;39.866;-0.072;2022-11-12T21:46:53;102571.69;;;23.11;54.18
60487;BME280;46327;39.866;-0.072;2022-11-12T21:49:20;102577.04;;;22.50;55.06
60487;BME280;46327;39.866;-0.072;2022-11-12T21:51:48;102576.89;;;23.14;54.47
60487;BME280;46327;39.866;-0.072;2022-11-12T21:54:15;102570.08;;;22.86;54.66
60487;BME280;46327;39.866;-0.072;2022-11-12T21:56:43;102564.59;;;22.88;54.51
60487;BME280;46327;39.866;-0.072;2022-11-12T21:59:10;102550.36;;;23.16;54.23
60487;BME280;46327;39.866;-0.072;2022-11-12T22:01:37;102546.42;;;23.04;53.78
60487;BME280;46327;39.866;-0.072;2022-11-12T22:04:06;102542.04;;;23.01;54.38
60487;BME280;46327;39.866;-0.072;2022-11-12T22:06:36;102543.44;;;22.99;54.01
60487;BME280;46327;39.866;-0.072;2022-11-12T22:09:04;102546.36;;;22.79;54.01
60487;BME280;46327;39.866;-0.072;2022-11-12T22:11:31;102553.14;;;23.14;53.84
60487;BME280;46327;39.866;-0.072;2022-11-12T22:13:58;102553.17;;;22.82;54.02
60487;BME280;46327;39.866;-0.072;2022-11-12T22:16:26;102555.91;;;22.90;53.95
60487;BME280;46327;39.866;-0.072;2022-11-12T22:18:55;102546.18;;;23.33;53.91
60487;BME280;46327;39.866;-0.072;2022-11-12T22:21:25;102531.93;;;23.00;53.70
60487;BME280;46327;39.866;-0.072;2022-11-12T22:23:54;102512.22;;;22.81;53.97
60487;BME280;46327;39.866;-0.072;2022-11-12T22:26:25;102497.45;;;22.98;54.00
60487;BME280;46327;39.866;-0.072;2022-11-12T22:28:53;102483.23;;;23.20;53.50
60487;BME280;46327;39.866;-0.072;2022-11-12T22:31:23;102489.37;;;22.86;53.78
60487;BME280;46327;39.866;-0.072;2022-11-12T22:33:50;102493.00;;;23.19;53.51
60487;BME280;46327;39.866;-0.072;2022-11-12T22:36:19;102492.90;;;23.05;53.33
60487;BME280;46327;39.866;-0.072;2022-11-12T22:38:48;102498.07;;;22.81;53.17
60487;BME280;46327;39.866;-0.072;2022-11-12T22:41:17;102499.96;;;22.85;53.61
60487;BME280;46327;39.866;-0.072;2022-11-12T22:43:46;102492.58;;;23.07;53.14
60487;BME280;46327;39.866;-0.072;2022-11-12T22:46:16;102475.38;;;23.25;53.21
60487;BME280;46327;39.866;-0.072;2022-11-12T22:48:43;102456.98;;;23.13;53.29
60487;BME280;46327;39.866;-0.072;2022-11-12T22:51:13;102443.67;;;22.90;53.37
60487;BME280;46327;39.866;-0.072;2022-11-12T22:53:41;102432.08;;;23.10;53.16
60487;BME280;46327;39.866;-0.072;2022-11-12T22:56:10;102434.92;;;22.74;53.04
60487;BME280;46327;39.866;-0.072;2022-11-12T22:58:39;102449.86;;;22.89;53.22
60487;BME280;46327;39.866;-0.072;2022-11-12T23:01:09;102469.50;;;23.19;52.98
60487;BME280;46327;39.866;-0.072;2022-11-12T23:03:37;102467.03;;;22.75;52.96
60487;BME280;46327;39.866;-0.072;2022-11-12T23:06:05;102462.29;;;23.29;52.77
60487;BME280;46327;39.866;-0.072;2022-11-12T23:08:34;102465.06;;;23.03;52.74
60487;BME280;46327;39.866;-0.072;2022-11-12T23:11:02;102464.13;;;22.73;52.87
60487;BME280;46327;39.866;-0.072;2022-11-12T23:13:30;102464.91;;;22.85;52.67
60487;BME280;46327;39.866;-0.072;2022-11-12T23:15:57;102465.20;;;22.90;52.97
60487;BME280;46327;39.866;-0.072;2022-11-12T23:18:25;102455.90;;;23.05;52.67
60487;BME280;46327;39.866;-0.072;2022-11-12T23:20:52;102455.93;;;22.69;53.08
60487;BME280;46327;39.866;-0.072;2022-11-12T23:23:20;102467.13;;;23.37;52.98
60487;BME280;46327;39.866;-0.072;2022-11-12T23:25:47;102467.32;;;23.26;53.06
60487;BME280;46327;39.866;-0.072;2022-11-12T23:28:14;102462.95;;;23.25;52.95
60487;BME280;46327;39.866;-0.072;2022-11-12T23:30:47;102457.90;;;23.19;52.77
60487;BME280;46327;39.866;-0.072;2022-11-12T23:33:14;102460.89;;;23.10;52.93
60487;BME280;46327;39.866;-0.072;2022-11-12T23:35:42;102459.13;;;23.18;53.27
60487;BME280;46327;39.866;-0.072;2022-11-12T23:38:09;102451.38;;;23.32;53.18
60487;BME280;46327;39.866;-0.072;2022-11-12T23:40:37;102449.19;;;23.00;53.40
60487;BME280;46327;39.866;-0.072;2022-11-12T23:43:04;102442.34;;;22.78;53.41
60487;BME280;46327;39.866;-0.072;2022-11-12T23:45:35;102436.54;;;23.01;53.42
60487;BME280;46327;39.866;-0.072;2022-11-12T23:48:02;102436.55;;;23.21;53.42
60487;BME280;46327;39.866;-0.072;2022-11-12T23:50:29;102440.43;;;23.19;53.55
60487;BME280;46327;39.866;-0.072;2022-11-12T23:52:55;102442.73;;;23.01;53.48
60487;BME280;46327;39.866;-0.072;2022-11-12T23:55:22;102447.63;;;22.78;53.45
60487;BME280;46327;39.866;-0.072;2022-11-12T23:57:51;102449.52;;;22.81;53.42
